Oak Hammock Air Park

CAV9 · Manitoba, Canada

METAR history CAV9 · Oak Hammock Air Park

Below you see METARs of the last few days. Select a year to browse through older METARs, from the year 2007 onwards.

February 27, 2024

Time Code Weather Temp. Visibility Ceiling Wind METAR/SPECI
06:00
L
-17 °C ¾ mi 900 ft 360° 360° 22 - 29 kt METAR CYWG 271200Z 36022G29KT 3/4SM R36/2600V3500FT/N R31/2800VP6000FT/D -SN BLSN VV009 M17/M19 A2975 RMK SN8 SLP097
05:29
L
-17 °C ½ mi 1,200 ft 010° 010° 24 - 30 kt METAR CYWG 271129Z 01024G30KT 1/2SM R36/1100V1600FT/N R31/1600V1800FT/N SN BLSN VV012 M17/M19 A2973 RMK SN8 SLP090
05:00
L
-17 °C ⅛ mi 800 ft 360° 360° 23 - 29 kt METAR CYWG 271100Z 36023G29KT 1/8SM R36/2200V2400FT/N R31/1200V1400FT/N +SN BLSN VV008 M17/M18 A2973 RMK SN8 PRESRR SLP091
04:44
L
-16 °C ⅜ mi 900 ft 010° 010° 23 - 33 kt METAR CYWG 271044Z 01023G33KT 3/8SM R36/1100V1800FT/N R31/1800V2600FT/N SN BLSN VV009 M16/M18 A2971 RMK SN8 SLP082
04:00
L
-16 °C ⅝ mi 1,000 ft 010° 010° 24 - 30 kt METAR CYWG 271000Z 01024G30KT 5/8SM R36/3000V5500FT/U R31/3500V4500FT/N -SN BLSN VV010 M16/M18 A2970 RMK SN8 PRESFR SLP080
03:58
L
-16 °C ⅝ mi 1,000 ft 010° 010° 27 kt METAR CYWG 270958Z 01027KT 5/8SM R36/3000V5000FT/N R31/3500V5000FT/N -SN BLSN VV010 M16/M18 A2971 RMK SN8 SLP081
03:37
I
-15 °C 1 mi 1,500 ft 010° 010° 25 - 32 kt METAR CYWG 270937Z 01025G32KT 1SM R36/2200V2800FT/N R31/5500VP6000FT/D -SN BLSN OVC015 M15/M18 A2971 RMK ST8 PRESFR SLP082
03:29
I
-15 °C 2 mi 1,500 ft 360° 360° 25 - 32 kt METAR CYWG 270929Z 36025G32KT 2SM -SN BLSN OVC015 M15/M18 A2972 RMK ST8 SLP086
03:00
M
-15 °C 4 mi 2,100 ft 360° 360° 22 - 29 kt METAR CYWG 270900Z 36022G29KT 4SM -SN BLSN OVC021 M15/M17 A2971 RMK ST8 SLP080
02:39
M
-15 °C 3 mi 2,000 ft 360° 360° 21 - 27 kt METAR CYWG 270839Z 36021G27KT 3SM -SN BR OVC020 M15/M17 A2971 RMK ST8 PRESRR SLP082
02:00
I
-14 °C 2½ mi 1,800 ft 010° 010° 23 - 33 kt METAR CYWG 270800Z 01023G33KT 2 1/2SM -SG BR OVC018 M14/M17 A2963 RMK ST8 VIS VRB 1 3/4 - 4 PRESFR SLP053
01:00
I
-14 °C 2½ mi 1,500 ft 010° 010° 25 kt METAR CYWG 270700Z 01025KT 2 1/2SM -SG BR OVC015 M14/M16 A2964 RMK ST8 VIS VRB 1 3/4 - 4 SLP056
00:36
I
-13 °C 2½ mi 1,500 ft 020° 020° 23 - 30 kt METAR CYWG 270636Z 02023G30KT 2 1/2SM -SG BR OVC015 M13/M15 A2962 RMK ST8 VIS VRB 1 3/4 - 4 SLP050
00:00
I
-12 °C 3 mi 1,500 ft 010° 010° 22 - 27 kt METAR CYWG 270600Z 01022G27KT 3SM -SG BR OVC015 M12/M15 A2964 RMK ST8 SLP055

February 26, 2024

Time Code Weather Temp. Visibility Ceiling Wind METAR/SPECI
23:00
I
-11 °C 2½ mi 1,200 ft 360° 360° 20 - 30 kt METAR CYWG 270500Z 36020G30KT 2 1/2SM -SG BR OVC012 M11/M13 A2959 RMK ST8 PRESRR SLP038
22:00
M
-9 °C 3 mi 1,200 ft 010° 010° 21 - 26 kt METAR CYWG 270400Z 01021G26KT 3SM -SG BR OVC012 M09/M11 A2958 RMK ST8 SLP034
21:49
I
-9 °C 3 mi 1,100 ft 010° 010° 20 - 27 kt METAR CYWG 270349Z 01020G27KT 3SM -SG BR OVC011 M09/M11 A2958 RMK ST8 SLP034
21:22
I
-9 °C 2½ mi 900 ft 360° 360° 16 - 24 kt METAR CYWG 270322Z 36016G24KT 2 1/2SM -SG BR OVC009 M09/M10 A2958 RMK ST8 PRESRR SLP034
21:00
I
-8 °C 4 mi 800 ft 010° 010° 17 - 22 kt METAR CYWG 270300Z 01017G22KT 4SM -SG BR OVC008 M08/M10 A2955 RMK ST8 SLP024
20:00
I
-8 °C 6 mi 800 ft 010° 010° 15 - 20 kt METAR CYWG 270200Z 01015G20KT 6SM -FZDZ -PL BR OVC008 M08/M09 A2952 RMK NS8 VIS LWR SW ICE ON INDICATOR SLP014
19:50
I
-8 °C 8 mi 900 ft 360° 360° 16 kt METAR CYWG 270150Z 36016KT 8SM -FZDZ -PL OVC009 M08/M09 A2953 RMK NS8 ICE ON INDICATOR SLP017
19:32
M
-7 °C 12 mi 1,000 ft 350° 350° 17 kt METAR CYWG 270132Z 35017KT 12SM -FZDZ -SN OVC010 M07/M09 A2954 RMK NS8 PRESRR SLP020
19:00
M
-7 °C 9 mi 1,000 ft 360° 360° 17 kt METAR CYWG 270100Z 36017KT 9SM -FZDZ -PLSN OVC010 M07/M08 A2951 RMK NS8 VIS SE-W 21/4 SLP009
18:53
M
-6 °C 12 mi 1,100 ft 360° 360° 18 - 25 kt METAR CYWG 270053Z 36018G25KT 12SM -FZDZ -PLSN BKN011 M06/M08 A2950 RMK NS8 SLP007
18:41
M
-6 °C 14 mi 1,100 ft 360° 360° 15 - 25 kt METAR CYWG 270041Z 36015G25KT 14SM -FZDZ -SN BKN011 M06/M08 A2950 RMK ST7 PCPN VRY LGT SC ASOCTD PRESRR SLP005
18:24
I
-6 °C 13 mi 900 ft 360° 360° 15 kt METAR CYWG 270024Z 36015KT 13SM -FZDZ -SG BKN009 OVC014 M06/M08 A2948 RMK SC7ST1 VIS S-W LWR PRESRR SLP999
18:00
M
-6 °C 15 mi 1,000 ft 010° 010° 18 kt METAR CYWG 270000Z 01018KT 15SM OVC010 OVC017 M06/M08 A2946 RMK SC8SC1 SC TR SLP993
17:25
M
-6 °C 15 mi 1,100 ft 360° 360° 15 kt METAR CYWG 262325Z 36015KT 15SM FEW007 BKN011 OVC022 M06/M08 A2944 RMK CF1SC7SC1 CF TR SLP987
17:00
I
-6 °C 15 mi 900 ft 010° 010° 18 - 24 kt METAR CYWG 262300Z 01018G24KT 15SM OVC009 OVC021 M06/M07 A2941 RMK SC8SC1 SC TR SLP977
16:00
I
-5 °C 15 mi 800 ft 360° 360° 19 kt METAR CYWG 262200Z 36019KT 15SM OVC008 OVC020 M05/M07 A2939 RMK SC8SC1 SC TR ST ASOCTD SLP969
15:03
I
-5 °C 13 mi 600 ft 020° 020° 17 - 23 kt METAR CYWG 262103Z 02017G23KT 13SM BKN006 OVC010 OVC014 M05/M06 A2935 RMK SC5SC3SC1 SC TR VIS LWR W-N SLP956
14:00
M
-3 °C 15 mi 1,400 ft 020° 020° 16 - 21 kt METAR CYWG 262000Z 02016G21KT 15SM OVC014 OVC019 M03/M05 A2931 RMK SC8SC1 SC TR SLP940
13:43
M
-3 °C 15 mi 1,400 ft 010° 010° 15 - 20 kt METAR CYWG 261943Z 01015G20KT 15SM OVC014 OVC020 M03/M05 A2930 RMK SC8SC1 SC TR SLP937
13:00
M
-2 °C 15 mi 1,500 ft 030° 030° 15 kt METAR CYWG 261900Z 03015KT 15SM BKN015 OVC025 M02/M04 A2927 RMK SC7SC1 SLP929
12:00
M
-1 °C 15 mi 1,500 ft 010° 010° 11 kt METAR CYWG 261800Z 01011KT 15SM FEW010 BKN015 BKN020 OVC035 M01/M03 A2925 RMK CU1SC5SC2SC1 CU TR SLP921
11:00
M
1 °C 15 mi 2,000 ft 150° 150° 5 kt METAR CYWG 261700Z 15005KT 15SM FEW015 BKN020 OVC032 OVC090 01/M02 A2924 RMK SC2SC5SC1AS1 AS TR SLP917
10:00
M
0 °C 15 mi 2,500 ft 150° 150° 4 kt METAR CYWG 261600Z 15004KT 090V180 15SM FEW010 FEW015 BKN025 OVC035 OVC100 00/M02 A2924 RMK CF1CU1SC7SC1AS1 CF TR CU TR AS TR SLP917
09:00
V
0 °C 15 mi 3,700 ft 170° 170° 17 kt METAR CYWG 261500Z 17017KT 15SM DRSN FEW010 FEW015 FEW030 BKN037 OVC100 M00/M03 A2924 RMK CF1CU1SC1SC6AS1 CF TR CU TR SLP915
08:14
V
-2 °C 15 mi 11,000 ft 170° 170° 17 - 25 kt METAR CYWG 261414Z 17017G25KT 15SM DRSN FEW014 SCT074 BKN110 OVC230 M02/M03 A2924 RMK SC1AC4AC3CI1 SC TR SLP917
08:00
V
-2 °C 15 mi 13,000 ft 170° 170° 17 kt METAR CYWG 261400Z 17017KT 15SM -SN DRSN FEW014 SCT074 BKN130 BKN230 M02/M04 A2925 RMK SC1AC4AC2CI1 SC TR CI TR SLP921
07:00
V
-3 °C 15 mi 6,700 ft 150° 150° 17 - 24 kt METAR CYWG 261300Z 15017G24KT 15SM -SN DRSN FEW008 FEW015 SCT032 BKN067 M03/M04 A2928 RMK SC2SC1SC2AC3 SC TR SLP931
06:46
V
-3 °C 15 mi 3,200 ft 150° 150° 17 - 23 kt METAR CYWG 261246Z 15017G23KT 15SM -SN DRSN SCT009 BKN032 BKN067 M03/M05 A2928 RMK SC4SC2AC1 SLP932
06:00
I
-5 °C 9 mi 900 ft 140° 140° 24 - 31 kt METAR CYWG 261200Z 14024G31KT 9SM -SN BKN009 BKN017 OVC032 M05/M06 A2929 RMK SC5SC2SC1 PRESFR SLP933
05:50
M
-5 °C 5 mi 1,000 ft 140° 140° 22 - 31 kt METAR CYWG 261150Z 14022G31KT 5SM -SN BLSN BKN010 BKN016 OVC027 M05/M06 A2930 RMK SC5SC2SC1 PRESFR SLP937
05:34
I
-5 °C 1½ mi 900 ft 140° 140° 24 - 32 kt METAR CYWG 261134Z 14024G32KT 1 1/2SM R13/5000VP6000FT/U -SN BLSN BKN009 OVC017 M05/M06 A2931 RMK SC7SC1 VIS VRB 1-2 SLP942
05:26
I
-5 °C 1 mi 900 ft 140° 140° 23 - 31 kt METAR CYWG 261126Z 14023G31KT 1SM R13/3500V5000FT/U R36/4000VP6000FT/U -SN BLSN OVC009 M05/M06 A2932 RMK SC8 PRESFR SLP944
05:20
L
-5 °C ½ mi 900 ft 130° 130° 25 - 30 kt METAR CYWG 261120Z 13025G30KT 1/2SM R13/3000V4500FT/U R36/3500V4500FT/U -SN BLSN VV009 M05/M06 A2932 RMK SN8 PRESFR SLP945
05:00
L
-5 °C ⅜ mi 500 ft 130° 130° 21 - 26 kt METAR CYWG 261100Z 13021G26KT 3/8SM R13/3000V3500FT/N R36/3500V4000FT/N SN BLSN VV005 M05/M06 A2937 RMK SN8 /S02/ PRESFR SLP960
04:45
L
-5 °C ⅜ mi 400 ft 130° 130° 21 - 28 kt METAR CYWG 261045Z 13021G28KT 3/8SM R13/2400V2800FT/N R36/3000V3500FT/D SN VV004 M05/M06 A2940 RMK SN8 PRESFR SLP972
04:28
L
-5 °C ⅜ mi 500 ft 140° 140° 19 - 29 kt METAR CYWG 261028Z 14019G29KT 3/8SM R13/3000V3500FT/N R36/3500FT/N SN VV005 M05/M06 A2943 RMK SN8 PRESFR SLP981
04:15
L
-5 °C ½ mi 900 ft 140° 140° 19 - 26 kt METAR CYWG 261015Z 14019G26KT 1/2SM R13/3500VP6000FT/D R36/3500VP6000FT/D SN VV009 M05/M06 A2944 RMK SN8 PRESFR SLP986
04:00
L
-6 °C ¾ mi 1,400 ft 140° 140° 21 kt METAR CYWG 261000Z 14021KT 3/4SM R13/4000V5500FT/U R36/4000V6000FT/U -SN OVC014 M06/M06 A2946 RMK SN4SC4 VIS VRB 1-2-1 SLP993
03:46
L
-6 °C ¾ mi 1,200 ft 140° 140° 18 - 24 kt METAR CYWG 260946Z 14018G24KT 3/4SM R13/5500VP6000FT/D R36/6000FT/D -SN OVC012 M06/M07 A2947 RMK SC8 VIS VRB 1-2-1 PRESFR SLP997
03:20
I
-5 °C 1 mi 1,600 ft 140° 140° 17 kt METAR CYWG 260920Z 14017KT 1SM R13/6000FT/D R36/P6000FT/D -SN OVC016 M05/M07 A2952 RMK SC8 PRESFR SLP012
03:00
I
-5 °C 2¼ mi 3,200 ft 140° 140° 18 - 24 kt METAR CYWG 260900Z 14018G24KT 2 1/4SM -SN OVC032 M05/M09 A2953 RMK SC8 VIS VRB 11/2-3 PRESFR SLP018
02:31
M
-4 °C 12 mi 2,500 ft 140° 140° 15 kt METAR CYWG 260831Z 14015KT 12SM -SN OVC025 M04/M11 A2956 RMK SC8 PRESFR SLP027
02:00
V
-4 °C 15 mi 4,200 ft 150° 150° 14 kt METAR CYWG 260800Z 15014KT 15SM BKN042 M04/M11 A2959 RMK SC7 SLP037
01:00
V
-5 °C 15 mi 4,200 ft 140° 140° 12 kt METAR CYWG 260700Z 14012KT 15SM BKN042 BKN150 M05/M10 A2962 RMK SC5AC1 SLP048
00:00
V
-6 °C 15 mi - 150° 150° 10 kt METAR CYWG 260600Z 15010KT 15SM SCT140 M06/M10 A2965 RMK AC3 PRESFR SLP059

February 25, 2024

Time Code Weather Temp. Visibility Ceiling Wind METAR/SPECI
23:00
V
-6 °C 15 mi - 150° 150° 9 kt METAR CYWG 260500Z 15009KT 15SM SCT150 SCT250 M06/M09 A2971 RMK AC3CI1 PRESFR SLP078
22:00
V
-7 °C 15 mi - 150° 150° 9 kt METAR CYWG 260400Z 15009KT 15SM FEW180 FEW250 M07/M09 A2975 RMK AC1CI2 AC TR SLP093
21:00
V
-7 °C 15 mi - 150° 150° 9 kt METAR CYWG 260300Z 15009KT 15SM FEW180 M07/M09 A2977 RMK AC2 SLP099
20:00
V
-6 °C 15 mi - 160° 160° 9 kt METAR CYWG 260200Z 16009KT 15SM SKC M06/M10 A2977 RMK SLP100
19:00
V
-7 °C 15 mi - 160° 160° 7 kt METAR CYWG 260100Z 16007KT 15SM FEW230 M07/M11 A2978 RMK CI1 CI TR SLP105
18:00
V
-4 °C 15 mi - Var Var 2 kt METAR CYWG 260000Z VRB02KT 15SM FEW230 M04/M11 A2979 RMK CI1 CI TR SLP107
17:00
V
-4 °C 15 mi - 290° 290° 7 kt METAR CYWG 252300Z 29007KT 15SM FEW030 M04/M11 A2980 RMK SC1 SC TR SLP108
16:00
V
-4 °C 15 mi - 310° 310° 5 kt METAR CYWG 252200Z 31005KT 230V320 15SM FEW029 M04/M11 A2979 RMK SC1 SC TR SLP106
15:00
V
-5 °C 15 mi - 230° 230° 7 kt METAR CYWG 252100Z 23007KT 210V300 15SM FEW029 M05/M12 A2981 RMK SC1 SLP110
14:00
V
-5 °C 15 mi - 320° 320° 8 kt METAR CYWG 252000Z 32008KT 15SM SCT030 M05/M12 A2982 RMK SC3 SLP114
13:00
M
-6 °C 15 mi 2,900 ft 310° 310° 3 kt METAR CYWG 251900Z 31003KT 240V010 15SM BKN029 M06/M13 A2983 RMK SC7 SLP116
12:00
M
-7 °C 15 mi 3,000 ft 360° 360° 8 kt METAR CYWG 251800Z 36008KT 15SM BKN030 M07/M12 A2983 RMK SC7 SLP116
11:00
V
-7 °C 15 mi - 320° 320° 9 kt METAR CYWG 251700Z 32009KT 15SM FEW035 M07/M12 A2982 RMK SC2 SLP113
10:00
V
-7 °C 15 mi - 340° 340° 6 kt METAR CYWG 251600Z 34006KT 15SM FEW040 FEW250 M07/M13 A2980 RMK SC1CI1 SC TR CI TR SLP108
09:00
V
-8 °C 15 mi - 350° 350° 9 kt METAR CYWG 251500Z 35009KT 15SM FEW042 FEW250 M08/M12 A2978 RMK SC1CI1 SC TR CI TR SLP101
08:00
V
-9 °C 15 mi - 330° 330° 8 kt METAR CYWG 251400Z 33008KT 15SM FEW042 FEW250 M09/M12 A2975 RMK SC1CI1 SC TR SLP091
07:00
V
-9 °C 15 mi - 320° 320° 10 kt METAR CYWG 251300Z 32010KT 15SM FEW042 M09/M12 A2973 RMK SC1 SLP084
06:00
V
-8 °C 15 mi - 320° 320° 11 kt METAR CYWG 251200Z 32011KT 15SM SCT035 M08/M12 A2971 RMK SC4 SLP076
05:00
V
-7 °C 15 mi - 310° 310° 13 kt METAR CYWG 251100Z 31013KT 15SM FEW014 SCT035 M07/M10 A2969 RMK SC1SC3 SC TR SLP067
04:00
V
-4 °C 15 mi 3,300 ft 350° 350° 11 kt METAR CYWG 251000Z 35011KT 15SM FEW014 OVC033 M04/M09 A2965 RMK SC2SC6 SLP055
03:00
M
-4 °C 15 mi 1,800 ft 010° 010° 8 kt METAR CYWG 250900Z 01008KT 15SM BKN018 OVC150 M04/M06 A2963 RMK SC7AC1 SLP046
02:00
V
-4 °C 15 mi - 020° 020° 10 kt METAR CYWG 250800Z 02010KT 15SM FEW150 FEW230 M04/M06 A2959 RMK AC1CI2 AC TR SLP034
01:00
V
-2 °C 15 mi - 330° 330° 14 kt METAR CYWG 250700Z 33014KT 15SM SCT230 M02/M05 A2956 RMK CI3 SLP023
00:00
V
0 °C 15 mi 20,000 ft 310° 310° 16 kt METAR CYWG 250600Z 31016KT 15SM OVC200 M00/M05 A2954 RMK CI8 SLP016